Pride Of Canterbury — MPQZ6 — position and weather

sailwx.info

Track history (hours):
 
Tides and Currents Weather Stations Pressure Air Temp Water Temp Dewpoint Dewpoint Depression Visibility Wind Speed Wind Dir Waves Ship Positions

Pride Of Canterbury

Operator: P & O Ferries

Last reported at 2017-Sep-20 00:30 UTC. Time now 2017-Sep-20 00:35 UTC.
Position N 51°02' E 001°32'.

Length 180 m; draft 5.7 m.

Type: Passenger vessel. MMSI: 232001060.

Date/timePositionNaut miles runAvg speedWind from/ knotsBaromVisibWave heightAir tempDewpointWater temp
2017-Sep-20 00:30N 51°02' E 001°32'917.9
2017-Sep-20 00:00N 51°07' E 001°21'0 0.5
2017-Sep-19 23:14N 51°07' E 001°20'0 0.9
2017-Sep-19 23:00N 51°07' E 001°20'816.4
2017-Sep-19 22:30N 51°03' E 001°32'917.2
2017-Sep-19 22:00N 50°59' E 001°43'5 9.0
2017-Sep-19 21:28N 50°58' E 001°51'0 0.0
2017-Sep-19 20:59N 50°58' E 001°51'2 4.0
2017-Sep-19 20:30N 50°58' E 001°48'816.9
2017-Sep-19 20:00N 51°01' E 001°35'917.7
2017-Sep-19 19:30N 51°06' E 001°24'3 3.9
2017-Sep-19 18:47N 51°07' E 001°20'0 0.0
2017-Sep-19 18:23N 51°07' E 001°20'4 9.2
2017-Sep-19 18:01N 51°07' E 001°26'918.4
2017-Sep-19 17:31N 51°01' E 001°38'917.1
2017-Sep-19 17:00N 50°58' E 001°50'0 1.0
2017-Sep-19 16:30N 50°58' E 001°51'0 0.3
2017-Sep-19 15:59N 50°58' E 001°51'715.4
2017-Sep-19 15:30N 50°59' E 001°39'919.0
2017-Sep-19 15:00N 51°05' E 001°28'5 4.1
2017-Sep-19 13:44N 51°07' E 001°20'311.5
2017-Sep-19 13:30N 51°07' E 001°24'918.1
2017-Sep-19 13:01N 51°02' E 001°36'816.7
2017-Sep-19 12:30N 50°58' E 001°48'2 2.5
2017-Sep-19 11:48N 50°58' E 001°51'0 0.0
2017-Sep-19 11:30N 50°58' E 001°51'816.3
2017-Sep-19 11:01N 50°59' E 001°38'918.9
2017-Sep-19 10:31N 51°05' E 001°26'5 7.9
2017-Sep-19 09:56N 51°07' E 001°20'0 0.0
2017-Sep-19 09:28N 51°07' E 001°20'3 5.7
2017-Sep-19 09:00N 51°07' E 001°24'917.7
2017-Sep-19 08:30N 51°02' E 001°36'917.1
2017-Sep-19 08:01N 50°58' E 001°48'2 3.7
2017-Sep-19 07:30N 50°58' E 001°51'0 0.0
2017-Sep-19 07:00N 50°58' E 001°51'510.9
2017-Sep-19 06:30N 50°58' E 001°42'816.7
2017-Sep-19 06:01N 51°01' E 001°30'917.5
2017-Sep-19 05:30N 51°07' E 001°20'0 0.3
2017-Sep-19 04:58N 51°07' E 001°20'0 0.0
2017-Sep-19 04:30N 51°07' E 001°20'0 0.3
2017-Sep-19 04:00N 51°07' E 001°20'815.9
2017-Sep-19 03:30N 51°04' E 001°31'918.2
2017-Sep-19 03:01N 50°59' E 001°44'5 9.2
2017-Sep-19 02:29N 50°58' E 001°51'0 0.0
2017-Sep-19 02:00N 50°58' E 001°51'0 0.0
2017-Sep-19 01:30N 50°58' E 001°51'510.2
2017-Sep-19 01:01N 50°58' E 001°43'918.8
2017-Sep-19 00:31N 51°03' E 001°30'8 6.2
2017-Sep-18 23:16N 51°07' E 001°20'2 7.1
2017-Sep-18 23:00N 51°07' E 001°23'917.0
2017-Sep-18 22:30N 51°03' E 001°35'816.7
2017-Sep-18 22:01N 50°58' E 001°45'3 6.9
2017-Sep-18 21:30N 50°58' E 001°51'0 0.0
2017-Sep-18 20:59N 50°58' E 001°51'3 7.2
2017-Sep-18 20:30N 50°58' E 001°46'918.0
2017-Sep-18 20:00N 51°00' E 001°32'918.5
2017-Sep-18 19:30N 51°07' E 001°22'1 1.2
2017-Sep-18 18:34N 51°07' E 001°20'0 1.1
2017-Sep-18 18:23N 51°07' E 001°20'513.9
2017-Sep-18 18:01N 51°05' E 001°28'917.8
2017-Sep-18 17:31N 51°00' E 001°39'714.8
2017-Sep-18 17:01N 50°58' E 001°51'0 0.3
2017-Sep-18 16:30N 50°58' E 001°51'1 1.9
2017-Sep-18 16:00N 50°58' E 001°50'816.2
2017-Sep-18 15:30N 50°59' E 001°37'917.9
2017-Sep-18 15:00N 51°05' E 001°26'4 3.7
2017-Sep-18 13:51N 51°07' E 001°20'411.2
2017-Sep-18 13:30N 51°06' E 001°26'917.3
2017-Sep-18 13:00N 51°01' E 001°37'815.9
2017-Sep-18 12:31N 50°58' E 001°49'1 2.6
2017-Sep-18 11:59N 50°58' E 001°51'0 0.5
2017-Sep-18 11:27N 50°58' E 001°51'1117.6
2017-Sep-18 10:51N 51°02' E 001°35'618.7
2017-Sep-18 10:31N 51°05' E 001°27'5 4.2
2017-Sep-18 09:24N 51°07' E 001°20'513.4
2017-Sep-18 09:00N 51°07' E 001°29'815.4
2017-Sep-18 08:30N 51°02' E 001°38'815.7
2017-Sep-18 08:00N 50°58' E 001°49'1 2.5
2017-Sep-18 07:30N 50°58' E 001°51'0 0.6
2017-Sep-18 06:54N 50°58' E 001°51'614.1
2017-Sep-18 06:30N 50°58' E 001°42'816.5
2017-Sep-18 06:01N 51°03' E 001°31'7 3.5
2017-Sep-18 04:02N 51°07' E 001°22'015.1
2017-Sep-18 04:00N 51°07' E 001°23'815.5
2017-Sep-18 03:31N 51°03' E 001°33'816.5
2017-Sep-18 03:01N 50°58' E 001°44'4 8.9
2017-Sep-18 02:30N 50°58' E 001°51'0 0.0
2017-Sep-18 02:00N 50°58' E 001°51'0 0.0
2017-Sep-18 01:30N 50°58' E 001°51'3 5.5
2017-Sep-18 01:00N 50°58' E 001°47'917.9
2017-Sep-18 00:30N 51°01' E 001°33'918.8
2017-Sep-18 00:00N 51°07' E 001°22'1 1.3
2017-Sep-17 23:05N 51°07' E 001°20'0 1.2
2017-Sep-17 22:59N 51°07' E 001°20'714.7
2017-Sep-17 22:30N 51°05' E 001°31'917.4
2017-Sep-17 22:00N 50°60' E 001°42'611.9
2017-Sep-17 21:30N 50°58' E 001°51'0 0.0
2017-Sep-17 21:00N 50°58' E 001°51'1 1.3
2017-Sep-17 20:29N 50°58' E 001°50'918.8
2017-Sep-17 20:00N 51°00' E 001°36'918.8
2017-Sep-17 19:31N 51°06' E 001°24'3 3.1
2017-Sep-17 18:31N 51°07' E 001°20'0 1.1
2017-Sep-17 18:26N 51°07' E 001°20'614.2
2017-Sep-17 18:00N 51°05' E 001°29'918.3
2017-Sep-17 17:30N 50°60' E 001°41'712.7
2017-Sep-17 16:59N 50°58' E 001°51'0 0.0
2017-Sep-17 16:30N 50°58' E 001°51'1 2.0
2017-Sep-17 16:00N 50°58' E 001°50'713.6
2017-Sep-17 15:31N 50°59' E 001°39'816.2
2017-Sep-17 15:01N 51°04' E 001°29'7 6.6
2017-Sep-17 14:01N 51°07' E 001°20'0 0.0
2017-Sep-17 13:53N 51°07' E 001°20'512.3
2017-Sep-17 13:30N 51°06' E 001°27'918.1
2017-Sep-17 13:00N 51°01' E 001°39'815.7
2017-Sep-17 12:30N 50°58' E 001°51'0 0.4
2017-Sep-17 12:01N 50°58' E 001°51'0 0.0
2017-Sep-17 11:31N 50°58' E 001°51'713.1
2017-Sep-17 11:00N 50°59' E 001°41'1019.1
2017-Sep-17 10:30N 51°04' E 001°27'6 5.4
2017-Sep-17 09:23N 51°07' E 001°20'410.8
2017-Sep-17 09:01N 51°06' E 001°26'917.6
2017-Sep-17 08:31N 51°01' E 001°38'815.4
2017-Sep-17 08:00N 50°58' E 001°49'1 2.3
2017-Sep-17 07:29N 50°58' E 001°51'0 0.5
2017-Sep-17 07:00N 50°58' E 001°51'817.0
2017-Sep-17 06:30N 50°60' E 001°38'918.3
2017-Sep-17 06:00N 51°05' E 001°26'4 2.3
2017-Sep-17 04:11N 51°07' E 001°20'0 0.6
2017-Sep-17 03:57N 51°07' E 001°20'715.1
2017-Sep-17 03:30N 51°05' E 001°30'917.8
2017-Sep-17 03:00N 50°59' E 001°41'612.5
2017-Sep-17 02:30N 50°58' E 001°51'0 0.0
2017-Sep-17 02:00N 50°58' E 001°51'0 0.0
2017-Sep-17 01:30N 50°58' E 001°51'3 5.1
2017-Sep-17 01:00N 50°58' E 001°47'815.8
2017-Sep-17 00:31N 51°00' E 001°35'816.8
2017-Sep-17 00:00N 51°05' E 001°24'3 5.5
2017-Sep-16 23:24N 51°07' E 001°20'2 4.4
2017-Sep-16 23:00N 51°07' E 001°23'918.2
2017-Sep-16 22:30N 51°02' E 001°35'917.3
2017-Sep-16 22:01N 50°58' E 001°47'2 4.8
2017-Sep-16 21:30N 50°58' E 001°51'0 0.9
2017-Sep-16 21:00N 50°58' E 001°50'4 7.9
2017-Sep-16 20:31N 50°58' E 001°44'510.8
2017-Sep-16 20:00N 50°60' E 001°36'816.9
2017-Sep-16 19:30N 51°05' E 001°26'4 5.3
2017-Sep-16 18:41N 51°07' E 001°20'0 2.6
2017-Sep-16 18:30N 51°07' E 001°21'816.5
2017-Sep-16 18:00N 51°04' E 001°32'918.5
2017-Sep-16 17:30N 50°58' E 001°44'4 8.2
2017-Sep-16 17:01N 50°58' E 001°51'0 0.0
2017-Sep-16 16:30N 50°58' E 001°51'611.1
2017-Sep-16 16:00N 50°58' E 001°42'917.5
2017-Sep-16 15:30N 51°01' E 001°29'815.8
2017-Sep-16 14:59N 51°07' E 001°20'0 0.2
2017-Sep-16 14:21N 51°07' E 001°20'0 0.8
2017-Sep-16 14:00N 51°07' E 001°20'815.7
2017-Sep-16 13:30N 51°06' E 001°33'918.1
2017-Sep-16 13:01N 50°59' E 001°43'510.5
2017-Sep-16 12:30N 50°58' E 001°51'0 0.0
2017-Sep-16 11:57N 50°58' E 001°51'1 2.4
2017-Sep-16 11:30N 50°58' E 001°49'917.3
2017-Sep-16 10:59N 51°01' E 001°36'918.5
2017-Sep-16 10:30N 51°06' E 001°24'3 2.6
2017-Sep-16 09:24N 51°07' E 001°20'512.7
2017-Sep-16 09:00N 51°06' E 001°28'917.6
2017-Sep-16 08:31N 51°01' E 001°39'815.1
2017-Sep-16 08:01N 50°58' E 001°51'0 0.5
2017-Sep-16 07:30N 50°58' E 001°51'0 0.0
2017-Sep-16 07:00N 50°58' E 001°51'714.6
2017-Sep-16 06:30N 50°59' E 001°40'918.3
2017-Sep-16 06:00N 51°04' E 001°27'6 3.6
2017-Sep-16 04:27N 51°07' E 001°20'0 0.3
2017-Sep-16 04:00N 51°07' E 001°20'815.6
2017-Sep-16 03:30N 51°03' E 001°31'817.0
2017-Sep-16 03:00N 50°59' E 001°42'611.2
2017-Sep-16 02:31N 50°58' E 001°51'0 0.0
2017-Sep-16 01:59N 50°58' E 001°51'0 0.0
2017-Sep-16 01:30N 50°58' E 001°51'612.6
2017-Sep-16 01:00N 50°58' E 001°41'815.4
2017-Sep-16 00:30N 51°01' E 001°30'917.1
2017-Sep-16 00:00N 51°07' E 001°20'0 0.2
2017-Sep-15 23:30N 51°07' E 001°20'0 0.1
2017-Sep-15 23:00N 51°07' E 001°20'713.2
2017-Sep-15 22:31N 51°05' E 001°30'918.0
2017-Sep-15 22:01N 50°60' E 001°41'612.2
2017-Sep-15 21:30N 50°58' E 001°51'0 0.0
2017-Sep-15 21:00N 50°58' E 001°51'3 6.2
2017-Sep-15 20:30N 50°58' E 001°46'915.5
2017-Sep-15 19:57N 51°01' E 001°33'818.7
2017-Sep-15 19:30N 51°06' E 001°23'2 2.1
2017-Sep-15 18:28N 51°07' E 001°20'510.1
2017-Sep-15 18:01N 51°06' E 001°27'918.3
2017-Sep-15 17:31N 51°01' E 001°39'815.2
2017-Sep-15 17:01N 50°58' E 001°51'0 0.4
2017-Sep-15 16:25N 50°58' E 001°51'2 4.5
2017-Sep-15 16:00N 50°58' E 001°48'917.1
2017-Sep-15 15:30N 51°01' E 001°35'918.0
2017-Sep-15 15:01N 51°06' E 001°23'3 2.8
2017-Sep-15 14:02N 51°07' E 001°20'0 0.4
2017-Sep-15 13:50N 51°07' E 001°20'516.2
2017-Sep-15 13:30N 51°06' E 001°28'918.3
2017-Sep-15 13:00N 51°01' E 001°40'714.4
2017-Sep-15 12:31N 50°58' E 001°51'0 0.3
2017-Sep-15 12:00N 50°58' E 001°51'1 1.8
2017-Sep-15 11:31N 50°58' E 001°50'815.8
2017-Sep-15 11:00N 51°00' E 001°38'816.5
2017-Sep-15 10:30N 51°05' E 001°27'5 3.9
2017-Sep-15 09:16N 51°07' E 001°20'311.1
2017-Sep-15 09:00N 51°07' E 001°25'917.7
2017-Sep-15 08:30N 51°01' E 001°36'816.3
2017-Sep-15 08:00N 50°58' E 001°48'2 3.7
2017-Sep-15 07:30N 50°58' E 001°51'0 0.0
2017-Sep-15 07:00N 50°58' E 001°51'713.6
2017-Sep-15 06:30N 50°59' E 001°40'918.5
2017-Sep-15 06:00N 51°04' E 001°28'6 5.2
2017-Sep-15 04:51N 51°07' E 001°20'411.7
2017-Sep-15 04:30N 51°06' E 001°26'918.2
2017-Sep-15 04:00N 51°01' E 001°38'816.3
2017-Sep-15 03:30N 50°58' E 001°51'0 0.8
2017-Sep-15 03:00N 50°58' E 001°51'0 0.0
2017-Sep-15 02:30N 50°58' E 001°51'1 1.1
2017-Sep-15 02:00N 50°58' E 001°50'816.1
2017-Sep-15 01:30N 50°59' E 001°38'918.6
2017-Sep-15 01:00N 51°05' E 001°26'4 6.5
2017-Sep-15 00:19N 51°07' E 001°20'0 0.0
2017-Sep-14 23:57N 51°07' E 001°20'510.7
2017-Sep-14 23:30N 51°05' E 001°27'918.2
2017-Sep-14 23:00N 51°01' E 001°39'815.3
2017-Sep-14 22:31N 50°58' E 001°51'0 0.3
2017-Sep-14 21:59N 50°58' E 001°51'2 4.3
2017-Sep-14 21:30N 50°58' E 001°48'917.3
2017-Sep-14 21:00N 51°01' E 001°35'918.4
2017-Sep-14 20:30N 51°06' E 001°23'2 4.4
2017-Sep-14 20:00N 51°07' E 001°20'0 0.0
2017-Sep-14 19:30N 51°07' E 001°20'4 7.3
2017-Sep-14 19:00N 51°07' E 001°26'917.4
2017-Sep-14 18:30N 51°02' E 001°37'815.7
2017-Sep-14 18:01N 50°58' E 001°48'2 2.8
2017-Sep-14 17:24N 50°58' E 001°51'0 0.0
2017-Sep-14 16:59N 50°58' E 001°51'4 8.6
2017-Sep-14 16:30N 50°58' E 001°44'917.7
2017-Sep-14 16:00N 51°02' E 001°32'917.3
2017-Sep-14 15:30N 51°07' E 001°21'0 0.5
2017-Sep-14 14:30N 51°07' E 001°20'713.8
2017-Sep-14 14:00N 51°04' E 001°30'815.7
2017-Sep-14 13:30N 50°59' E 001°40'714.5
2017-Sep-14 13:00N 50°58' E 001°51'0 0.1
2017-Sep-14 12:28N 50°58' E 001°51'0 0.3
2017-Sep-14 11:57N 50°58' E 001°51'613.3
2017-Sep-14 11:31N 50°58' E 001°42'816.1
2017-Sep-14 11:00N 51°03' E 001°31'816.0
2017-Sep-14 10:31N 51°07' E 001°20'0 0.2
2017-Sep-14 09:39N 51°07' E 001°20'1 3.9
2017-Sep-14 09:30N 51°07' E 001°21'815.4
2017-Sep-14 09:01N 51°04' E 001°32'815.5
2017-Sep-14 08:30N 50°60' E 001°42'611.7
2017-Sep-14 08:01N 50°58' E 001°51'0 0.0
2017-Sep-14 07:30N 50°58' E 001°51'1 2.7
2017-Sep-14 06:59N 50°58' E 001°49'817.2
2017-Sep-14 06:30N 50°59' E 001°36'611.9
2017-Sep-14 06:00N 51°03' E 001°28'6 3.1
2017-Sep-14 04:10N 51°07' E 001°23'213.0
2017-Sep-14 04:01N 51°08' E 001°26'714.7
2017-Sep-14 03:31N 51°03' E 001°36'815.1
2017-Sep-14 03:01N 50°58' E 001°45'4 7.9
2017-Sep-14 02:30N 50°58' E 001°51'0 0.0
2017-Sep-14 02:00N 50°58' E 001°51'0 0.0
2017-Sep-14 01:27N 50°58' E 001°51'0 0.0
2017-Sep-14 01:00N 50°58' E 001°51'0 0.0
2017-Sep-14 00:30N 50°58' E 001°51'0 0.0
2017-Sep-14 00:00N 50°58' E 001°51'0 0.0
2017-Sep-13 23:30N 50°58' E 001°51'0 0.0
2017-Sep-13 23:00N 50°58' E 001°51'1 2.4
2017-Sep-13 22:30N 50°58' E 001°49'714.5
2017-Sep-13 22:00N 50°60' E 001°38'816.5
2017-Sep-13 21:30N 51°05' E 001°28'5 5.4
2017-Sep-13 20:32N 51°07' E 001°20'0 0.0
2017-Sep-13 20:12N 51°07' E 001°20'0 2.1
2017-Sep-13 20:00N 51°07' E 001°21'713.9
2017-Sep-13 19:30N 51°06' E 001°32'815.2
2017-Sep-13 19:00N 51°01' E 001°40'713.1
2017-Sep-13 18:30N 50°58' E 001°50'1 1.8
2017-Sep-13 17:58N 50°58' E 001°51'0 0.1
2017-Sep-13 17:30N 50°58' E 001°51'814.0
2017-Sep-13 16:57N 50°59' E 001°39'716.3
2017-Sep-13 16:30N 51°03' E 001°29'7 5.6
2017-Sep-13 15:14N 51°07' E 001°20'0 0.5
2017-Sep-13 14:53N 51°07' E 001°20'2 4.6
2017-Sep-13 14:31N 51°07' E 001°23'612.9
2017-Sep-13 14:00N 51°03' E 001°31'714.7
2017-Sep-13 13:30N 50°60' E 001°41'612.4
2017-Sep-13 13:01N 50°58' E 001°51'0 0.1
2017-Sep-13 12:30N 50°58' E 001°51'0 0.0
2017-Sep-13 12:00N 50°58' E 001°51'5 9.5
2017-Sep-13 11:31N 50°58' E 001°43'815.3
2017-Sep-13 10:57N 51°02' E 001°32'716.1
2017-Sep-13 10:31N 51°06' E 001°23'2 1.7
2017-Sep-13 09:23N 51°07' E 001°20'3 7.6
2017-Sep-13 09:01N 51°06' E 001°24'714.2
2017-Sep-13 08:31N 51°03' E 001°34'713.4
2017-Sep-13 08:01N 50°59' E 001°43'510.3
2017-Sep-13 07:31N 50°58' E 001°51'0 0.0
2017-Sep-13 07:00N 50°58' E 001°51'0 0.0
2017-Sep-13 06:30N 50°58' E 001°51'0 0.5
2017-Sep-13 05:58N 50°58' E 001°51'715.5
2017-Sep-13 05:30N 50°60' E 001°39'815.8
2017-Sep-13 05:00N 51°04' E 001°29'7 3.7
2017-Sep-13 03:11N 51°07' E 001°20'0 0.6
2017-Sep-13 03:00N 51°07' E 001°20'3 6.4
2017-Sep-13 02:30N 51°07' E 001°25'4 7.3
2017-Sep-13 02:00N 51°05' E 001°29'611.4
2017-Sep-13 01:30N 51°02' E 001°38'713.9
2017-Sep-13 01:01N 50°58' E 001°46'3 6.7
2017-Sep-13 00:30N 50°58' E 001°52'0 0.0
2017-Sep-12 23:59N 50°58' E 001°52'0 0.1
2017-Sep-12 23:30N 50°58' E 001°52'612.9
2017-Sep-12 23:00N 50°58' E 001°41'815.2
2017-Sep-12 22:30N 51°02' E 001°31'815.5
2017-Sep-12 21:59N 51°07' E 001°21'1 0.6
2017-Sep-12 20:48N 51°07' E 001°20'1 3.2
2017-Sep-12 20:30N 51°07' E 001°22'510.1
2017-Sep-12 20:00N 51°06' E 001°29'815.4
2017-Sep-12 19:30N 51°01' E 001°39'714.5
2017-Sep-12 19:01N 50°58' E 001°49'1 2.8
2017-Sep-12 18:29N 50°58' E 001°52'0 0.0
2017-Sep-12 18:00N 50°58' E 001°52'510.9
2017-Sep-12 17:30N 50°58' E 001°43'916.7
2017-Sep-12 16:58N 51°02' E 001°31'816.4
2017-Sep-12 16:31N 51°07' E 001°21'1 1.0
2017-Sep-12 15:42N 51°07' E 001°20'0 0.3
2017-Sep-12 15:30N 51°07' E 001°20'5 9.5
2017-Sep-12 15:00N 51°07' E 001°28'613.0
2017-Sep-12 14:31N 51°05' E 001°37'815.8
2017-Sep-12 14:01N 50°58' E 001°45'4 7.4
2017-Sep-12 13:28N 50°58' E 001°51'0 0.0
2017-Sep-12 12:59N 50°58' E 001°51'3 6.7
2017-Sep-12 12:30N 50°58' E 001°46'4 7.6
2017-Sep-12 11:58N 50°58' E 001°39'715.0
2017-Sep-12 11:30N 51°02' E 001°31'816.0
2017-Sep-12 11:00N 51°07' E 001°21'1 0.9
2017-Sep-12 10:15N 51°07' E 001°20'0 0.6
2017-Sep-12 10:00N 51°07' E 001°20'612.4
2017-Sep-12 09:31N 51°06' E 001°29'816.1
2017-Sep-12 09:00N 51°00' E 001°39'815.2
2017-Sep-12 08:30N 50°58' E 001°51'0 0.7
2017-Sep-12 08:00N 50°58' E 001°51'0 0.0
2017-Sep-12 07:30N 50°58' E 001°51'1 2.4
2017-Sep-12 07:01N 50°58' E 001°50'815.4
2017-Sep-12 06:30N 50°59' E 001°37'816.8
2017-Sep-12 06:00N 51°04' E 001°26'5 3.6
2017-Sep-12 04:34N 51°07' E 001°20'2 4.5
2017-Sep-12 04:13N 51°07' E 001°23'314.6
2017-Sep-12 04:00N 51°06' E 001°27'815.1
2017-Sep-12 03:30N 51°02' E 001°37'714.0
2017-Sep-12 03:00N 50°58' E 001°46'3 4.6
2017-Sep-12 02:17N 50°58' E 001°52'0 0.0
2017-Sep-12 01:52N 50°58' E 001°52'0 0.0
2017-Sep-11 23:59N 50°58' E 001°52'0 0.0
2017-Sep-11 23:26N 50°58' E 001°52'0 0.4
2017-Sep-11 23:00N 50°58' E 001°51'510.8
2017-Sep-11 22:30N 50°58' E 001°43'714.6
2017-Sep-11 22:00N 50°60' E 001°32'816.7
2017-Sep-11 21:30N 51°06' E 001°23'2 4.0
2017-Sep-11 20:55N 51°07' E 001°20'0 0.1
2017-Sep-11 20:23N 51°07' E 001°20'4 9.5
2017-Sep-11 20:01N 51°06' E 001°25'815.5
2017-Sep-11 19:31N 51°02' E 001°36'815.3
2017-Sep-11 19:01N 50°58' E 001°46'3 6.3
2017-Sep-11 18:29N 50°58' E 001°52'0 0.0
2017-Sep-11 18:00N 50°58' E 001°52'510.4
2017-Sep-11 17:30N 50°58' E 001°44'816.6
2017-Sep-11 17:00N 51°02' E 001°32'816.5
2017-Sep-11 16:30N 51°07' E 001°21'1 1.4
2017-Sep-11 15:48N 51°07' E 001°20'0 0.1
2017-Sep-11 15:29N 51°07' E 001°20'2 5.1
2017-Sep-11 15:01N 51°08' E 001°24'613.0
2017-Sep-11 14:30N 51°05' E 001°33'713.9
2017-Sep-11 14:00N 51°00' E 001°41'611.5
2017-Sep-11 13:30N 50°58' E 001°50'1 1.3
2017-Sep-11 12:59N 50°58' E 001°51'0 0.0
2017-Sep-11 12:30N 50°58' E 001°51'510.9
2017-Sep-11 12:01N 50°58' E 001°43'814.8
2017-Sep-11 11:26N 51°02' E 001°31'715.7
2017-Sep-11 11:00N 51°06' E 001°22'1 2.4
2017-Sep-11 10:28N 51°07' E 001°24'1 1.3
2017-Sep-11 09:31N 51°07' E 001°22'015.5
2017-Sep-11 09:31N 51°07' E 001°22'815.6
2017-Sep-11 09:01N 51°03' E 001°33'816.0
2017-Sep-11 08:31N 50°59' E 001°44'5 8.6
2017-Sep-11 07:59N 50°58' E 001°51'0 0.0
2017-Sep-11 07:30N 50°58' E 001°51'3 6.4
2017-Sep-11 07:00N 50°58' E 001°46'816.2
2017-Sep-11 06:30N 51°00' E 001°34'815.3
2017-Sep-11 06:00N 51°05' E 001°25'4 3.9
2017-Sep-11 05:07N 51°07' E 001°20'0 0.1
2017-Sep-11 04:44N 51°07' E 001°20'2 4.8
2017-Sep-11 04:25N 51°07' E 001°23'4 8.9
2017-Sep-11 04:01N 51°05' E 001°28'713.7
2017-Sep-11 03:30N 51°02' E 001°37'713.5
2017-Sep-11 03:00N 50°58' E 001°46'3 6.2
2017-Sep-11 02:29N 50°58' E 001°51'0 0.0
2017-Sep-11 01:46N 50°58' E 001°51'0 0.0
2017-Sep-11 01:11N 50°58' E 001°51'0 0.0
2017-Sep-11 00:58N 50°58' E 001°51'0 0.0
2017-Sep-11 00:30N 50°58' E 001°51'0 0.0
2017-Sep-11 00:00N 50°58' E 001°51'0 0.9
2017-Sep-10 23:30N 50°58' E 001°50'4 7.9
2017-Sep-10 23:00N 50°58' E 001°44'714.3
2017-Sep-10 22:30N 51°00' E 001°34'815.5
2017-Sep-10 22:00N 51°06' E 001°25'4 3.4
2017-Sep-10 20:57N 51°07' E 001°20'0 0.5
2017-Sep-10 20:30N 51°07' E 001°20'2 4.2
2017-Sep-10 20:01N 51°07' E 001°24'2 3.2
2017-Sep-10 19:30N 51°07' E 001°26'3 5.4
2017-Sep-10 19:01N 51°05' E 001°29'816.0
2017-Sep-10 18:31N 51°00' E 001°39'612.6
2017-Sep-10 18:00N 50°58' E 001°48'2 4.3
2017-Sep-10 17:30N 50°58' E 001°52'0 0.0
2017-Sep-10 17:00N 50°58' E 001°52'4 8.1
2017-Sep-10 16:30N 50°58' E 001°45'1016.6
2017-Sep-10 15:53N 51°03' E 001°31'617.0
2017-Sep-10 15:30N 51°07' E 001°22'2 3.3
2017-Sep-10 14:59N 51°07' E 001°20'2 2.5
2017-Sep-10 14:00N 51°07' E 001°24'714.5
2017-Sep-10 13:31N 51°04' E 001°34'815.6
2017-Sep-10 13:00N 50°59' E 001°44'5 9.0
2017-Sep-10 12:30N 50°58' E 001°51'0 0.0
2017-Sep-10 11:58N 50°58' E 001°51'1 1.6
2017-Sep-10 11:30N 50°58' E 001°50'815.7
2017-Sep-10 11:00N 50°59' E 001°38'816.7
2017-Sep-10 10:30N 51°04' E 001°27'5 9.8
2017-Sep-10 09:58N 51°07' E 001°20'0 0.0
2017-Sep-10 09:29N 51°07' E 001°20'1 1.9
2017-Sep-10 09:01N 51°07' E 001°20'817.0
2017-Sep-10 08:31N 51°03' E 001°32'917.5
2017-Sep-10 08:00N 50°58' E 001°45'4 8.8
2017-Sep-10 07:30N 50°58' E 001°52'0 0.0
2017-Sep-10 07:00N 50°58' E 001°52'0 0.0
2017-Sep-10 06:31N 50°58' E 001°52'0 0.0
2017-Sep-10 06:00N 50°58' E 001°52'0 0.0
2017-Sep-10 05:31N 50°58' E 001°52'0 0.0
2017-Sep-10 05:00N 50°58' E 001°52'0 0.0
2017-Sep-10 04:31N 50°58' E 001°52'0 0.0
2017-Sep-10 04:00N 50°58' E 001°52'0 0.0
2017-Sep-10 03:30N 50°58' E 001°52'0 0.0
2017-Sep-10 03:00N 50°58' E 001°52'0 0.0
2017-Sep-10 02:30N 50°58' E 001°52'0 0.0
2017-Sep-10 02:00N 50°58' E 001°52'0 0.0
2017-Sep-10 01:31N 50°58' E 001°52'0 0.0
2017-Sep-10 01:00N 50°58' E 001°52'0 0.0
2017-Sep-10 00:31N 50°58' E 001°52'  
Track history (hours):
 
Tides and Currents Weather Stations Pressure Air Temp Water Temp Dewpoint Dewpoint Depression Visibility Wind Speed Wind Dir Waves Ship Positions

Pride Of Canterbury

Operator: P & O Ferries

Last reported at 2017-Sep-20 00:30 UTC. Time now 2017-Sep-20 00:35 UTC.
Position N 51°02' E 001°32'.

Length 180 m; draft 5.7 m.

Type: Passenger vessel. MMSI: 232001060.

Date/timePositionNaut miles runAvg speedWind from/ knotsBaromVisibWave heightAir tempDewpointWater temp
2017-Sep-20 00:30N 51°02' E 001°32'917.9
2017-Sep-20 00:00N 51°07' E 001°21'0 0.5
2017-Sep-19 23:14N 51°07' E 001°20'0 0.9
2017-Sep-19 23:00N 51°07' E 001°20'816.4
2017-Sep-19 22:30N 51°03' E 001°32'917.2
2017-Sep-19 22:00N 50°59' E 001°43'5 9.0
2017-Sep-19 21:28N 50°58' E 001°51'0 0.0
2017-Sep-19 20:59N 50°58' E 001°51'2 4.0
2017-Sep-19 20:30N 50°58' E 001°48'816.9
2017-Sep-19 20:00N 51°01' E 001°35'917.7
2017-Sep-19 19:30N 51°06' E 001°24'3 3.9
2017-Sep-19 18:47N 51°07' E 001°20'0 0.0
2017-Sep-19 18:23N 51°07' E 001°20'4 9.2
2017-Sep-19 18:01N 51°07' E 001°26'918.4
2017-Sep-19 17:31N 51°01' E 001°38'917.1
2017-Sep-19 17:00N 50°58' E 001°50'0 1.0
2017-Sep-19 16:30N 50°58' E 001°51'0 0.3
2017-Sep-19 15:59N 50°58' E 001°51'715.4
2017-Sep-19 15:30N 50°59' E 001°39'919.0
2017-Sep-19 15:00N 51°05' E 001°28'5 4.1
2017-Sep-19 13:44N 51°07' E 001°20'311.5
2017-Sep-19 13:30N 51°07' E 001°24'918.1
2017-Sep-19 13:01N 51°02' E 001°36'816.7
2017-Sep-19 12:30N 50°58' E 001°48'2 2.5
2017-Sep-19 11:48N 50°58' E 001°51'0 0.0
2017-Sep-19 11:30N 50°58' E 001°51'816.3
2017-Sep-19 11:01N 50°59' E 001°38'918.9
2017-Sep-19 10:31N 51°05' E 001°26'5 7.9
2017-Sep-19 09:56N 51°07' E 001°20'0 0.0
2017-Sep-19 09:28N 51°07' E 001°20'3 5.7
2017-Sep-19 09:00N 51°07' E 001°24'917.7
2017-Sep-19 08:30N 51°02' E 001°36'917.1
2017-Sep-19 08:01N 50°58' E 001°48'2 3.7
2017-Sep-19 07:30N 50°58' E 001°51'0 0.0
2017-Sep-19 07:00N 50°58' E 001°51'510.9
2017-Sep-19 06:30N 50°58' E 001°42'816.7
2017-Sep-19 06:01N 51°01' E 001°30'917.5
2017-Sep-19 05:30N 51°07' E 001°20'0 0.3
2017-Sep-19 04:58N 51°07' E 001°20'0 0.0
2017-Sep-19 04:30N 51°07' E 001°20'0 0.3
2017-Sep-19 04:00N 51°07' E 001°20'815.9
2017-Sep-19 03:30N 51°04' E 001°31'918.2
2017-Sep-19 03:01N 50°59' E 001°44'5 9.2
2017-Sep-19 02:29N 50°58' E 001°51'0 0.0
2017-Sep-19 02:00N 50°58' E 001°51'0 0.0
2017-Sep-19 01:30N 50°58' E 001°51'510.2
2017-Sep-19 01:01N 50°58' E 001°43'918.8
2017-Sep-19 00:31N 51°03' E 001°30'8 6.2
2017-Sep-18 23:16N 51°07' E 001°20'2 7.1
2017-Sep-18 23:00N 51°07' E 001°23'917.0
2017-Sep-18 22:30N 51°03' E 001°35'816.7
2017-Sep-18 22:01N 50°58' E 001°45'3 6.9
2017-Sep-18 21:30N 50°58' E 001°51'0 0.0
2017-Sep-18 20:59N 50°58' E 001°51'3 7.2
2017-Sep-18 20:30N 50°58' E 001°46'918.0
2017-Sep-18 20:00N 51°00' E 001°32'918.5
2017-Sep-18 19:30N 51°07' E 001°22'1 1.2
2017-Sep-18 18:34N 51°07' E 001°20'0 1.1
2017-Sep-18 18:23N 51°07' E 001°20'513.9
2017-Sep-18 18:01N 51°05' E 001°28'917.8
2017-Sep-18 17:31N 51°00' E 001°39'714.8
2017-Sep-18 17:01N 50°58' E 001°51'0 0.3
2017-Sep-18 16:30N 50°58' E 001°51'1 1.9
2017-Sep-18 16:00N 50°58' E 001°50'816.2
2017-Sep-18 15:30N 50°59' E 001°37'917.9
2017-Sep-18 15:00N 51°05' E 001°26'4 3.7
2017-Sep-18 13:51N 51°07' E 001°20'411.2
2017-Sep-18 13:30N 51°06' E 001°26'917.3
2017-Sep-18 13:00N 51°01' E 001°37'815.9
2017-Sep-18 12:31N 50°58' E 001°49'1 2.6
2017-Sep-18 11:59N 50°58' E 001°51'0 0.5
2017-Sep-18 11:27N 50°58' E 001°51'1117.6
2017-Sep-18 10:51N 51°02' E 001°35'618.7
2017-Sep-18 10:31N 51°05' E 001°27'5 4.2
2017-Sep-18 09:24N 51°07' E 001°20'513.4
2017-Sep-18 09:00N 51°07' E 001°29'815.4
2017-Sep-18 08:30N 51°02' E 001°38'815.7
2017-Sep-18 08:00N 50°58' E 001°49'1 2.5
2017-Sep-18 07:30N 50°58' E 001°51'0 0.6
2017-Sep-18 06:54N 50°58' E 001°51'614.1
2017-Sep-18 06:30N 50°58' E 001°42'816.5
2017-Sep-18 06:01N 51°03' E 001°31'7 3.5
2017-Sep-18 04:02N 51°07' E 001°22'015.1
2017-Sep-18 04:00N 51°07' E 001°23'815.5
2017-Sep-18 03:31N 51°03' E 001°33'816.5
2017-Sep-18 03:01N 50°58' E 001°44'4 8.9
2017-Sep-18 02:30N 50°58' E 001°51'0 0.0
2017-Sep-18 02:00N 50°58' E 001°51'0 0.0
2017-Sep-18 01:30N 50°58' E 001°51'3 5.5
2017-Sep-18 01:00N 50°58' E 001°47'917.9
2017-Sep-18 00:30N 51°01' E 001°33'918.8
2017-Sep-18 00:00N 51°07' E 001°22'1 1.3
2017-Sep-17 23:05N 51°07' E 001°20'0 1.2
2017-Sep-17 22:59N 51°07' E 001°20'714.7
2017-Sep-17 22:30N 51°05' E 001°31'917.4
2017-Sep-17 22:00N 50°60' E 001°42'611.9
2017-Sep-17 21:30N 50°58' E 001°51'0 0.0
2017-Sep-17 21:00N 50°58' E 001°51'1 1.3
2017-Sep-17 20:29N 50°58' E 001°50'918.8
2017-Sep-17 20:00N 51°00' E 001°36'918.8
2017-Sep-17 19:31N 51°06' E 001°24'3 3.1
2017-Sep-17 18:31N 51°07' E 001°20'0 1.1
2017-Sep-17 18:26N 51°07' E 001°20'614.2
2017-Sep-17 18:00N 51°05' E 001°29'918.3
2017-Sep-17 17:30N 50°60' E 001°41'712.7
2017-Sep-17 16:59N 50°58' E 001°51'0 0.0
2017-Sep-17 16:30N 50°58' E 001°51'1 2.0
2017-Sep-17 16:00N 50°58' E 001°50'713.6
2017-Sep-17 15:31N 50°59' E 001°39'816.2
2017-Sep-17 15:01N 51°04' E 001°29'7 6.6
2017-Sep-17 14:01N 51°07' E 001°20'0 0.0
2017-Sep-17 13:53N 51°07' E 001°20'512.3
2017-Sep-17 13:30N 51°06' E 001°27'918.1
2017-Sep-17 13:00N 51°01' E 001°39'815.7
2017-Sep-17 12:30N 50°58' E 001°51'0 0.4
2017-Sep-17 12:01N 50°58' E 001°51'0 0.0
2017-Sep-17 11:31N 50°58' E 001°51'713.1
2017-Sep-17 11:00N 50°59' E 001°41'1019.1
2017-Sep-17 10:30N 51°04' E 001°27'6 5.4
2017-Sep-17 09:23N 51°07' E 001°20'410.8
2017-Sep-17 09:01N 51°06' E 001°26'917.6
2017-Sep-17 08:31N 51°01' E 001°38'815.4
2017-Sep-17 08:00N 50°58' E 001°49'1 2.3
2017-Sep-17 07:29N 50°58' E 001°51'0 0.5
2017-Sep-17 07:00N 50°58' E 001°51'817.0
2017-Sep-17 06:30N 50°60' E 001°38'918.3
2017-Sep-17 06:00N 51°05' E 001°26'4 2.3
2017-Sep-17 04:11N 51°07' E 001°20'0 0.6
2017-Sep-17 03:57N 51°07' E 001°20'715.1
2017-Sep-17 03:30N 51°05' E 001°30'917.8
2017-Sep-17 03:00N 50°59' E 001°41'612.5
2017-Sep-17 02:30N 50°58' E 001°51'0 0.0
2017-Sep-17 02:00N 50°58' E 001°51'0 0.0
2017-Sep-17 01:30N 50°58' E 001°51'3 5.1
2017-Sep-17 01:00N 50°58' E 001°47'815.8
2017-Sep-17 00:31N 51°00' E 001°35'816.8
2017-Sep-17 00:00N 51°05' E 001°24'3 5.5
2017-Sep-16 23:24N 51°07' E 001°20'2 4.4
2017-Sep-16 23:00N 51°07' E 001°23'918.2
2017-Sep-16 22:30N 51°02' E 001°35'917.3
2017-Sep-16 22:01N 50°58' E 001°47'2 4.8
2017-Sep-16 21:30N 50°58' E 001°51'0 0.9
2017-Sep-16 21:00N 50°58' E 001°50'4 7.9
2017-Sep-16 20:31N 50°58' E 001°44'510.8
2017-Sep-16 20:00N 50°60' E 001°36'816.9
2017-Sep-16 19:30N 51°05' E 001°26'4 5.3
2017-Sep-16 18:41N 51°07' E 001°20'0 2.6
2017-Sep-16 18:30N 51°07' E 001°21'816.5
2017-Sep-16 18:00N 51°04' E 001°32'918.5
2017-Sep-16 17:30N 50°58' E 001°44'4 8.2
2017-Sep-16 17:01N 50°58' E 001°51'0 0.0
2017-Sep-16 16:30N 50°58' E 001°51'611.1
2017-Sep-16 16:00N 50°58' E 001°42'917.5
2017-Sep-16 15:30N 51°01' E 001°29'815.8
2017-Sep-16 14:59N 51°07' E 001°20'0 0.2
2017-Sep-16 14:21N 51°07' E 001°20'0 0.8
2017-Sep-16 14:00N 51°07' E 001°20'815.7
2017-Sep-16 13:30N 51°06' E 001°33'918.1
2017-Sep-16 13:01N 50°59' E 001°43'510.5
2017-Sep-16 12:30N 50°58' E 001°51'0 0.0
2017-Sep-16 11:57N 50°58' E 001°51'1 2.4
2017-Sep-16 11:30N 50°58' E 001°49'917.3
2017-Sep-16 10:59N 51°01' E 001°36'918.5
2017-Sep-16 10:30N 51°06' E 001°24'3 2.6
2017-Sep-16 09:24N 51°07' E 001°20'512.7
2017-Sep-16 09:00N 51°06' E 001°28'917.6
2017-Sep-16 08:31N 51°01' E 001°39'815.1
2017-Sep-16 08:01N 50°58' E 001°51'0 0.5
2017-Sep-16 07:30N 50°58' E 001°51'0 0.0
2017-Sep-16 07:00N 50°58' E 001°51'714.6
2017-Sep-16 06:30N 50°59' E 001°40'918.3
2017-Sep-16 06:00N 51°04' E 001°27'6 3.6
2017-Sep-16 04:27N 51°07' E 001°20'0 0.3
2017-Sep-16 04:00N 51°07' E 001°20'815.6
2017-Sep-16 03:30N 51°03' E 001°31'817.0
2017-Sep-16 03:00N 50°59' E 001°42'611.2
2017-Sep-16 02:31N 50°58' E 001°51'0 0.0
2017-Sep-16 01:59N 50°58' E 001°51'0 0.0
2017-Sep-16 01:30N 50°58' E 001°51'612.6
2017-Sep-16 01:00N 50°58' E 001°41'815.4
2017-Sep-16 00:30N 51°01' E 001°30'917.1
2017-Sep-16 00:00N 51°07' E 001°20'0 0.2
2017-Sep-15 23:30N 51°07' E 001°20'0 0.1
2017-Sep-15 23:00N 51°07' E 001°20'713.2
2017-Sep-15 22:31N 51°05' E 001°30'918.0
2017-Sep-15 22:01N 50°60' E 001°41'612.2
2017-Sep-15 21:30N 50°58' E 001°51'0 0.0
2017-Sep-15 21:00N 50°58' E 001°51'3 6.2
2017-Sep-15 20:30N 50°58' E 001°46'915.5
2017-Sep-15 19:57N 51°01' E 001°33'818.7
2017-Sep-15 19:30N 51°06' E 001°23'2 2.1
2017-Sep-15 18:28N 51°07' E 001°20'510.1
2017-Sep-15 18:01N 51°06' E 001°27'918.3
2017-Sep-15 17:31N 51°01' E 001°39'815.2
2017-Sep-15 17:01N 50°58' E 001°51'0 0.4
2017-Sep-15 16:25N 50°58' E 001°51'2 4.5
2017-Sep-15 16:00N 50°58' E 001°48'917.1
2017-Sep-15 15:30N 51°01' E 001°35'918.0
2017-Sep-15 15:01N 51°06' E 001°23'3 2.8
2017-Sep-15 14:02N 51°07' E 001°20'0 0.4
2017-Sep-15 13:50N 51°07' E 001°20'516.2
2017-Sep-15 13:30N 51°06' E 001°28'918.3
2017-Sep-15 13:00N 51°01' E 001°40'714.4
2017-Sep-15 12:31N 50°58' E 001°51'0 0.3
2017-Sep-15 12:00N 50°58' E 001°51'1 1.8
2017-Sep-15 11:31N 50°58' E 001°50'815.8
2017-Sep-15 11:00N 51°00' E 001°38'816.5
2017-Sep-15 10:30N 51°05' E 001°27'5 3.9
2017-Sep-15 09:16N 51°07' E 001°20'311.1
2017-Sep-15 09:00N 51°07' E 001°25'917.7
2017-Sep-15 08:30N 51°01' E 001°36'816.3
2017-Sep-15 08:00N 50°58' E 001°48'2 3.7
2017-Sep-15 07:30N 50°58' E 001°51'0 0.0
2017-Sep-15 07:00N 50°58' E 001°51'713.6
2017-Sep-15 06:30N 50°59' E 001°40'918.5
2017-Sep-15 06:00N 51°04' E 001°28'6 5.2
2017-Sep-15 04:51N 51°07' E 001°20'411.7
2017-Sep-15 04:30N 51°06' E 001°26'918.2
2017-Sep-15 04:00N 51°01' E 001°38'816.3
2017-Sep-15 03:30N 50°58' E 001°51'0 0.8
2017-Sep-15 03:00N 50°58' E 001°51'0 0.0
2017-Sep-15 02:30N 50°58' E 001°51'1 1.1
2017-Sep-15 02:00N 50°58' E 001°50'816.1
2017-Sep-15 01:30N 50°59' E 001°38'918.6
2017-Sep-15 01:00N 51°05' E 001°26'4 6.5
2017-Sep-15 00:19N 51°07' E 001°20'0 0.0
2017-Sep-14 23:57N 51°07' E 001°20'510.7
2017-Sep-14 23:30N 51°05' E 001°27'918.2
2017-Sep-14 23:00N 51°01' E 001°39'815.3
2017-Sep-14 22:31N 50°58' E 001°51'0 0.3
2017-Sep-14 21:59N 50°58' E 001°51'2 4.3
2017-Sep-14 21:30N 50°58' E 001°48'917.3
2017-Sep-14 21:00N 51°01' E 001°35'918.4
2017-Sep-14 20:30N 51°06' E 001°23'2 4.4
2017-Sep-14 20:00N 51°07' E 001°20'0 0.0
2017-Sep-14 19:30N 51°07' E 001°20'4 7.3
2017-Sep-14 19:00N 51°07' E 001°26'917.4
2017-Sep-14 18:30N 51°02' E 001°37'815.7
2017-Sep-14 18:01N 50°58' E 001°48'2 2.8
2017-Sep-14 17:24N 50°58' E 001°51'0 0.0
2017-Sep-14 16:59N 50°58' E 001°51'4 8.6
2017-Sep-14 16:30N 50°58' E 001°44'917.7
2017-Sep-14 16:00N 51°02' E 001°32'917.3
2017-Sep-14 15:30N 51°07' E 001°21'0 0.5
2017-Sep-14 14:30N 51°07' E 001°20'713.8
2017-Sep-14 14:00N 51°04' E 001°30'815.7
2017-Sep-14 13:30N 50°59' E 001°40'714.5
2017-Sep-14 13:00N 50°58' E 001°51'0 0.1
2017-Sep-14 12:28N 50°58' E 001°51'0 0.3
2017-Sep-14 11:57N 50°58' E 001°51'613.3
2017-Sep-14 11:31N 50°58' E 001°42'816.1
2017-Sep-14 11:00N 51°03' E 001°31'816.0
2017-Sep-14 10:31N 51°07' E 001°20'0 0.2
2017-Sep-14 09:39N 51°07' E 001°20'1 3.9
2017-Sep-14 09:30N 51°07' E 001°21'815.4
2017-Sep-14 09:01N 51°04' E 001°32'815.5
2017-Sep-14 08:30N 50°60' E 001°42'611.7
2017-Sep-14 08:01N 50°58' E 001°51'0 0.0
2017-Sep-14 07:30N 50°58' E 001°51'1 2.7
2017-Sep-14 06:59N 50°58' E 001°49'817.2
2017-Sep-14 06:30N 50°59' E 001°36'611.9
2017-Sep-14 06:00N 51°03' E 001°28'6 3.1
2017-Sep-14 04:10N 51°07' E 001°23'213.0
2017-Sep-14 04:01N 51°08' E 001°26'714.7
2017-Sep-14 03:31N 51°03' E 001°36'815.1
2017-Sep-14 03:01N 50°58' E 001°45'4 7.9
2017-Sep-14 02:30N 50°58' E 001°51'0 0.0
2017-Sep-14 02:00N 50°58' E 001°51'0 0.0
2017-Sep-14 01:27N 50°58' E 001°51'0 0.0
2017-Sep-14 01:00N 50°58' E 001°51'0 0.0
2017-Sep-14 00:30N 50°58' E 001°51'0 0.0
2017-Sep-14 00:00N 50°58' E 001°51'0 0.0
2017-Sep-13 23:30N 50°58' E 001°51'0 0.0
2017-Sep-13 23:00N 50°58' E 001°51'1 2.4
2017-Sep-13 22:30N 50°58' E 001°49'714.5
2017-Sep-13 22:00N 50°60' E 001°38'816.5
2017-Sep-13 21:30N 51°05' E 001°28'5 5.4
2017-Sep-13 20:32N 51°07' E 001°20'0 0.0
2017-Sep-13 20:12N 51°07' E 001°20'0 2.1
2017-Sep-13 20:00N 51°07' E 001°21'713.9
2017-Sep-13 19:30N 51°06' E 001°32'815.2
2017-Sep-13 19:00N 51°01' E 001°40'713.1
2017-Sep-13 18:30N 50°58' E 001°50'1 1.8
2017-Sep-13 17:58N 50°58' E 001°51'0 0.1
2017-Sep-13 17:30N 50°58' E 001°51'814.0
2017-Sep-13 16:57N 50°59' E 001°39'716.3
2017-Sep-13 16:30N 51°03' E 001°29'7 5.6
2017-Sep-13 15:14N 51°07' E 001°20'0 0.5
2017-Sep-13 14:53N 51°07' E 001°20'2 4.6
2017-Sep-13 14:31N 51°07' E 001°23'612.9
2017-Sep-13 14:00N 51°03' E 001°31'714.7
2017-Sep-13 13:30N 50°60' E 001°41'612.4
2017-Sep-13 13:01N 50°58' E 001°51'0 0.1
2017-Sep-13 12:30N 50°58' E 001°51'0 0.0
2017-Sep-13 12:00N 50°58' E 001°51'5 9.5
2017-Sep-13 11:31N 50°58' E 001°43'815.3
2017-Sep-13 10:57N 51°02' E 001°32'716.1
2017-Sep-13 10:31N 51°06' E 001°23'2 1.7
2017-Sep-13 09:23N 51°07' E 001°20'3 7.6
2017-Sep-13 09:01N 51°06' E 001°24'714.2
2017-Sep-13 08:31N 51°03' E 001°34'713.4
2017-Sep-13 08:01N 50°59' E 001°43'510.3
2017-Sep-13 07:31N 50°58' E 001°51'0 0.0
2017-Sep-13 07:00N 50°58' E 001°51'0 0.0
2017-Sep-13 06:30N 50°58' E 001°51'0 0.5
2017-Sep-13 05:58N 50°58' E 001°51'715.5
2017-Sep-13 05:30N 50°60' E 001°39'815.8
2017-Sep-13 05:00N 51°04' E 001°29'7 3.7
2017-Sep-13 03:11N 51°07' E 001°20'0 0.6
2017-Sep-13 03:00N 51°07' E 001°20'3 6.4
2017-Sep-13 02:30N 51°07' E 001°25'4 7.3
2017-Sep-13 02:00N 51°05' E 001°29'611.4
2017-Sep-13 01:30N 51°02' E 001°38'713.9
2017-Sep-13 01:01N 50°58' E 001°46'3 6.7
2017-Sep-13 00:30N 50°58' E 001°52'0 0.0
2017-Sep-12 23:59N 50°58' E 001°52'0 0.1
2017-Sep-12 23:30N 50°58' E 001°52'612.9
2017-Sep-12 23:00N 50°58' E 001°41'815.2
2017-Sep-12 22:30N 51°02' E 001°31'815.5
2017-Sep-12 21:59N 51°07' E 001°21'1 0.6
2017-Sep-12 20:48N 51°07' E 001°20'1 3.2
2017-Sep-12 20:30N 51°07' E 001°22'510.1
2017-Sep-12 20:00N 51°06' E 001°29'815.4
2017-Sep-12 19:30N 51°01' E 001°39'714.5
2017-Sep-12 19:01N 50°58' E 001°49'1 2.8
2017-Sep-12 18:29N 50°58' E 001°52'0 0.0
2017-Sep-12 18:00N 50°58' E 001°52'510.9
2017-Sep-12 17:30N 50°58' E 001°43'916.7
2017-Sep-12 16:58N 51°02' E 001°31'816.4
2017-Sep-12 16:31N 51°07' E 001°21'1 1.0
2017-Sep-12 15:42N 51°07' E 001°20'0 0.3
2017-Sep-12 15:30N 51°07' E 001°20'5 9.5
2017-Sep-12 15:00N 51°07' E 001°28'613.0
2017-Sep-12 14:31N 51°05' E 001°37'815.8
2017-Sep-12 14:01N 50°58' E 001°45'4 7.4
2017-Sep-12 13:28N 50°58' E 001°51'0 0.0
2017-Sep-12 12:59N 50°58' E 001°51'3 6.7
2017-Sep-12 12:30N 50°58' E 001°46'4 7.6
2017-Sep-12 11:58N 50°58' E 001°39'715.0
2017-Sep-12 11:30N 51°02' E 001°31'816.0
2017-Sep-12 11:00N 51°07' E 001°21'1 0.9
2017-Sep-12 10:15N 51°07' E 001°20'0 0.6
2017-Sep-12 10:00N 51°07' E 001°20'612.4
2017-Sep-12 09:31N 51°06' E 001°29'816.1
2017-Sep-12 09:00N 51°00' E 001°39'815.2
2017-Sep-12 08:30N 50°58' E 001°51'0 0.7
2017-Sep-12 08:00N 50°58' E 001°51'0 0.0
2017-Sep-12 07:30N 50°58' E 001°51'1 2.4
2017-Sep-12 07:01N 50°58' E 001°50'815.4
2017-Sep-12 06:30N 50°59' E 001°37'816.8
2017-Sep-12 06:00N 51°04' E 001°26'5 3.6
2017-Sep-12 04:34N 51°07' E 001°20'2 4.5
2017-Sep-12 04:13N 51°07' E 001°23'314.6
2017-Sep-12 04:00N 51°06' E 001°27'815.1
2017-Sep-12 03:30N 51°02' E 001°37'714.0
2017-Sep-12 03:00N 50°58' E 001°46'3 4.6
2017-Sep-12 02:17N 50°58' E 001°52'0 0.0
2017-Sep-12 01:52N 50°58' E 001°52'0 0.0
2017-Sep-11 23:59N 50°58' E 001°52'0 0.0
2017-Sep-11 23:26N 50°58' E 001°52'0 0.4
2017-Sep-11 23:00N 50°58' E 001°51'510.8
2017-Sep-11 22:30N 50°58' E 001°43'714.6
2017-Sep-11 22:00N 50°60' E 001°32'816.7
2017-Sep-11 21:30N 51°06' E 001°23'2 4.0
2017-Sep-11 20:55N 51°07' E 001°20'0 0.1
2017-Sep-11 20:23N 51°07' E 001°20'4 9.5
2017-Sep-11 20:01N 51°06' E 001°25'815.5
2017-Sep-11 19:31N 51°02' E 001°36'815.3
2017-Sep-11 19:01N 50°58' E 001°46'3 6.3
2017-Sep-11 18:29N 50°58' E 001°52'0 0.0
2017-Sep-11 18:00N 50°58' E 001°52'510.4
2017-Sep-11 17:30N 50°58' E 001°44'816.6
2017-Sep-11 17:00N 51°02' E 001°32'816.5
2017-Sep-11 16:30N 51°07' E 001°21'1 1.4
2017-Sep-11 15:48N 51°07' E 001°20'0 0.1
2017-Sep-11 15:29N 51°07' E 001°20'2 5.1
2017-Sep-11 15:01N 51°08' E 001°24'613.0
2017-Sep-11 14:30N 51°05' E 001°33'713.9
2017-Sep-11 14:00N 51°00' E 001°41'611.5
2017-Sep-11 13:30N 50°58' E 001°50'1 1.3
2017-Sep-11 12:59N 50°58' E 001°51'0 0.0
2017-Sep-11 12:30N 50°58' E 001°51'510.9
2017-Sep-11 12:01N 50°58' E 001°43'814.8
2017-Sep-11 11:26N 51°02' E 001°31'715.7
2017-Sep-11 11:00N 51°06' E 001°22'1 2.4
2017-Sep-11 10:28N 51°07' E 001°24'1 1.3
2017-Sep-11 09:31N 51°07' E 001°22'015.5
2017-Sep-11 09:31N 51°07' E 001°22'815.6
2017-Sep-11 09:01N 51°03' E 001°33'816.0
2017-Sep-11 08:31N 50°59' E 001°44'5 8.6
2017-Sep-11 07:59N 50°58' E 001°51'0 0.0
2017-Sep-11 07:30N 50°58' E 001°51'3 6.4
2017-Sep-11 07:00N 50°58' E 001°46'816.2
2017-Sep-11 06:30N 51°00' E 001°34'815.3
2017-Sep-11 06:00N 51°05' E 001°25'4 3.9
2017-Sep-11 05:07N 51°07' E 001°20'0 0.1
2017-Sep-11 04:44N 51°07' E 001°20'2 4.8
2017-Sep-11 04:25N 51°07' E 001°23'4 8.9
2017-Sep-11 04:01N 51°05' E 001°28'713.7
2017-Sep-11 03:30N 51°02' E 001°37'713.5
2017-Sep-11 03:00N 50°58' E 001°46'3 6.2
2017-Sep-11 02:29N 50°58' E 001°51'0 0.0
2017-Sep-11 01:46N 50°58' E 001°51'0 0.0
2017-Sep-11 01:11N 50°58' E 001°51'0 0.0
2017-Sep-11 00:58N 50°58' E 001°51'0 0.0
2017-Sep-11 00:30N 50°58' E 001°51'0 0.0
2017-Sep-11 00:00N 50°58' E 001°51'0 0.9
2017-Sep-10 23:30N 50°58' E 001°50'4 7.9
2017-Sep-10 23:00N 50°58' E 001°44'714.3
2017-Sep-10 22:30N 51°00' E 001°34'815.5
2017-Sep-10 22:00N 51°06' E 001°25'4 3.4
2017-Sep-10 20:57N 51°07' E 001°20'0 0.5
2017-Sep-10 20:30N 51°07' E 001°20'2 4.2
2017-Sep-10 20:01N 51°07' E 001°24'2 3.2
2017-Sep-10 19:30N 51°07' E 001°26'3 5.4
2017-Sep-10 19:01N 51°05' E 001°29'816.0
2017-Sep-10 18:31N 51°00' E 001°39'612.6
2017-Sep-10 18:00N 50°58' E 001°48'2 4.3
2017-Sep-10 17:30N 50°58' E 001°52'0 0.0
2017-Sep-10 17:00N 50°58' E 001°52'4 8.1
2017-Sep-10 16:30N 50°58' E 001°45'1016.6
2017-Sep-10 15:53N 51°03' E 001°31'617.0
2017-Sep-10 15:30N 51°07' E 001°22'2 3.3
2017-Sep-10 14:59N 51°07' E 001°20'2 2.5
2017-Sep-10 14:00N 51°07' E 001°24'714.5
2017-Sep-10 13:31N 51°04' E 001°34'815.6
2017-Sep-10 13:00N 50°59' E 001°44'5 9.0
2017-Sep-10 12:30N 50°58' E 001°51'0 0.0
2017-Sep-10 11:58N 50°58' E 001°51'1 1.6
2017-Sep-10 11:30N 50°58' E 001°50'815.7
2017-Sep-10 11:00N 50°59' E 001°38'816.7
2017-Sep-10 10:30N 51°04' E 001°27'5 9.8
2017-Sep-10 09:58N 51°07' E 001°20'0 0.0
2017-Sep-10 09:29N 51°07' E 001°20'1 1.9
2017-Sep-10 09:01N 51°07' E 001°20'817.0
2017-Sep-10 08:31N 51°03' E 001°32'917.5
2017-Sep-10 08:00N 50°58' E 001°45'4 8.8
2017-Sep-10 07:30N 50°58' E 001°52'0 0.0
2017-Sep-10 07:00N 50°58' E 001°52'0 0.0
2017-Sep-10 06:31N 50°58' E 001°52'0 0.0
2017-Sep-10 06:00N 50°58' E 001°52'0 0.0
2017-Sep-10 05:31N 50°58' E 001°52'0 0.0
2017-Sep-10 05:00N 50°58' E 001°52'0 0.0
2017-Sep-10 04:31N 50°58' E 001°52'0 0.0
2017-Sep-10 04:00N 50°58' E 001°52'0 0.0
2017-Sep-10 03:30N 50°58' E 001°52'0 0.0
2017-Sep-10 03:00N 50°58' E 001°52'0 0.0
2017-Sep-10 02:30N 50°58' E 001°52'0 0.0
2017-Sep-10 02:00N 50°58' E 001°52'0 0.0
2017-Sep-10 01:31N 50°58' E 001°52'0 0.0
2017-Sep-10 01:00N 50°58' E 001°52'0 0.0
2017-Sep-10 00:31N 50°58' E 001°52'  

Dump ship's entire track history